Time;durP1;ratioP1;P1;durP2;ratioP2;P2;SDS_P1;SDS_P2;PMS_P1;PMS_P2;Temp;Humidity;BMP_temperature;BMP_pressure;BME280_temperature;BME280_humidity;BME280_pressure;Samples;Min_cycle;Max_cycle;Signal;HPM_P1;HPM_P2
2023/04/06 00:02:05;;;;;;;28.20;14.50;;;;;;;0.21;61.47;97423.12;108798;1253;103711;-72
2023/04/06 00:04:33;;;;;;;34.30;17.00;;;;;;;0.22;61.41;97422.39;108606;1252;101389;-73
2023/04/06 00:07:01;;;;;;;36.90;17.70;;;;;;;0.21;61.33;97418.60;108760;1251;108678;-74
2023/04/06 00:09:29;;;;;;;25.70;15.50;;;;;;;0.20;61.24;97420.39;108824;1251;95514;-72
2023/04/06 00:11:57;;;;;;;26.70;15.40;;;;;;;0.20;61.21;97418.83;108841;1252;97065;-74
2023/04/06 00:14:25;;;;;;;24.00;14.20;;;;;;;0.19;61.37;97419.63;108809;1252;103702;-71
2023/04/06 00:16:53;;;;;;;21.90;13.60;;;;;;;0.18;61.41;97412.68;108776;1252;101127;-72
2023/04/06 00:19:21;;;;;;;25.80;14.60;;;;;;;0.16;61.37;97414.41;108811;1252;100101;-72
2023/04/06 00:21:49;;;;;;;27.20;14.60;;;;;;;0.14;61.45;97412.69;108786;1251;95580;-71
2023/04/06 00:24:17;;;;;;;24.20;15.30;;;;;;;0.11;61.43;97412.92;108675;1252;96361;-71
2023/04/06 00:26:45;;;;;;;25.80;14.80;;;;;;;0.08;61.46;97410.61;108798;1252;103374;-71
2023/04/06 00:29:13;;;;;;;26.30;15.00;;;;;;;0.04;61.40;97405.66;108861;1252;101343;-71
2023/04/06 00:31:41;;;;;;;26.50;13.90;;;;;;;0.01;61.50;97402.93;108571;1259;98851;-70
2023/04/06 00:34:10;;;;;;;23.00;14.00;;;;;;;-0.03;61.66;97403.86;108536;1252;96121;-72
2023/04/06 00:36:39;;;;;;;26.00;13.90;;;;;;;-0.06;61.57;97400.32;108810;1252;95994;-71
2023/04/06 00:39:07;;;;;;;24.90;14.60;;;;;;;-0.10;61.51;97404.32;108856;1252;103628;-72
2023/04/06 00:41:35;;;;;;;24.30;14.40;;;;;;;-0.11;61.49;97399.81;108819;1252;101275;-72
2023/04/06 00:44:03;;;;;;;25.10;13.50;;;;;;;-0.11;61.40;97398.13;108842;1253;99139;-72
2023/04/06 00:46:31;;;;;;;22.50;14.20;;;;;;;-0.14;61.54;97395.92;108786;1252;95570;-72
2023/04/06 00:48:59;;;;;;;24.50;13.70;;;;;;;-0.16;61.49;97395.73;108850;1252;96045;-73
2023/04/06 00:51:27;;;;;;;25.10;13.60;;;;;;;-0.19;61.92;97390.73;108837;1252;103802;-72
2023/04/06 00:53:55;;;;;;;23.60;13.40;;;;;;;-0.23;61.99;97391.98;108874;1252;101779;-73
2023/04/06 00:56:23;;;;;;;22.60;13.40;;;;;;;-0.28;62.00;97389.95;108845;1252;108423;-72
2023/04/06 00:58:51;;;;;;;19.90;12.40;;;;;;;-0.33;61.78;97389.73;108839;1253;96009;-72
2023/04/06 01:01:19;;;;;;;26.70;14.40;;;;;;;-0.39;61.79;97392.22;108885;1252;95987;-72
2023/04/06 01:03:49;;;;;;;26.30;15.20;;;;;;;-0.39;61.85;97395.59;108830;1253;103735;-71
2023/04/06 01:06:17;;;;;;;29.30;17.10;;;;;;;-0.39;61.76;97391.91;108872;1251;101381;-71
2023/04/06 01:08:45;;;;;;;33.20;18.10;;;;;;;-0.43;61.77;97388.53;108821;1253;99784;-72
2023/04/06 01:11:14;;;;;;;33.50;18.90;;;;;;;-0.46;61.74;97387.95;108672;1252;95644;-73
2023/04/06 01:13:42;;;;;;;30.80;17.30;;;;;;;-0.49;61.93;97389.34;108830;1252;96112;-73
2023/04/06 01:16:10;;;;;;;26.90;15.90;;;;;;;-0.52;62.12;97385.55;108860;1253;103756;-72
2023/04/06 01:18:39;;;;;;;30.50;16.00;;;;;;;-0.57;62.31;97384.34;108887;1253;101271;-73
2023/04/06 01:21:08;;;;;;;28.20;15.80;;;;;;;-0.60;62.35;97386.14;108814;1252;99931;-73
2023/04/06 01:23:36;;;;;;;27.10;15.10;;;;;;;-0.64;62.29;97388.92;108830;1252;95866;-73
2023/04/06 01:26:05;;;;;;;27.40;16.00;;;;;;;-0.67;62.40;97388.89;108681;1253;96058;-71
2023/04/06 01:28:33;;;;;;;28.60;16.00;;;;;;;-0.72;62.60;97389.05;108869;1252;103646;-73
2023/04/06 01:31:01;;;;;;;29.60;17.30;;;;;;;-0.77;62.78;97387.73;108842;1252;101304;-73
2023/04/06 01:33:29;;;;;;;27.70;16.50;;;;;;;-0.81;62.81;97385.80;108802;1251;99729;-71
2023/04/06 01:35:57;;;;;;;27.20;15.80;;;;;;;-0.86;63.01;97387.80;108843;1253;95582;-73
2023/04/06 01:38:25;;;;;;;25.50;16.10;;;;;;;-0.95;63.05;97382.70;108854;1253;97108;-73
2023/04/06 01:40:54;;;;;;;25.60;14.60;;;;;;;-1.03;62.99;97382.52;108859;1253;103409;-74
2023/04/06 01:43:22;;;;;;;24.90;14.70;;;;;;;-1.08;63.03;97381.49;108832;1252;101750;-74
2023/04/06 01:45:51;;;;;;;23.90;14.80;;;;;;;-1.13;63.14;97382.52;108651;1252;100271;-73
2023/04/06 01:48:19;;;;;;;23.50;14.30;;;;;;;-1.16;63.09;97378.74;108830;1251;95844;-72
2023/04/06 01:50:48;;;;;;;27.60;14.50;;;;;;;-1.20;63.20;97379.57;108566;1253;96047;-72
2023/04/06 01:53:16;;;;;;;21.80;14.30;;;;;;;-1.23;63.16;97380.59;108878;1253;103684;-72
2023/04/06 01:55:44;;;;;;;22.20;13.20;;;;;;;-1.27;63.16;97376.02;108894;1251;101260;-73
2023/04/06 01:58:13;;;;;;;24.20;13.40;;;;;;;-1.35;63.27;97374.28;108815;1252;100095;-71
2023/04/06 02:00:41;;;;;;;24.20;14.30;;;;;;;-1.41;63.44;97373.93;108803;1253;95557;-71
2023/04/06 02:03:09;;;;;;;25.70;13.70;;;;;;;-1.43;63.47;97374.29;108869;1251;96056;-71
2023/04/06 02:05:37;;;;;;;23.10;12.80;;;;;;;-1.45;63.59;97375.05;108814;1252;103839;-74
2023/04/06 02:08:06;;;;;;;26.10;13.70;;;;;;;-1.47;63.76;97378.20;108853;1253;101130;-72
2023/04/06 02:10:35;;;;;;;27.80;15.10;;;;;;;-1.51;63.68;97380.70;108831;1253;99921;-73
2023/04/06 02:13:03;;;;;;;27.50;15.90;;;;;;;-1.55;63.84;97375.88;108631;1252;95637;-73
2023/04/06 02:15:31;;;;;;;27.10;16.80;;;;;;;-1.58;63.93;97373.55;108830;1253;96070;-72
2023/04/06 02:18:00;;;;;;;37.40;19.00;;;;;;;-1.64;63.98;97371.45;108871;1253;103142;-71
2023/04/06 02:20:28;;;;;;;33.30;17.40;;;;;;;-1.67;64.04;97370.27;108884;1253;101214;-72
2023/04/06 02:22:59;;;;;;;29.10;17.00;;;;;;;-1.68;64.19;97369.86;108841;1251;99847;-71
2023/04/06 02:25:27;;;;;;;32.10;18.60;;;;;;;-1.71;64.20;97366.27;108775;1253;95561;-71
2023/04/06 02:27:56;;;;;;;29.50;18.10;;;;;;;-1.72;64.21;97366.02;108808;1253;96016;-73
2023/04/06 02:30:24;;;;;;;30.30;18.90;;;;;;;-1.73;64.29;97365.94;108646;1252;102808;-71
2023/04/06 02:32:52;;;;;;;31.90;19.30;;;;;;;-1.73;64.59;97366.11;108838;1251;101470;-72
2023/04/06 02:35:20;;;;;;;32.40;19.50;;;;;;;-1.75;64.49;97366.24;108880;1251;100118;-71
2023/04/06 02:37:48;;;;;;;29.60;17.10;;;;;;;-1.75;64.47;97368.39;108649;1254;95889;-74
2023/04/06 02:40:16;;;;;;;29.40;16.40;;;;;;;-1.76;64.48;97370.08;108842;1251;96194;-71
2023/04/06 02:42:44;;;;;;;25.60;16.10;;;;;;;-1.78;64.40;97369.68;108844;1252;103545;-72
2023/04/06 02:45:12;;;;;;;26.90;16.80;;;;;;;-1.84;64.43;97371.12;108834;1251;101356;-71
2023/04/06 02:47:40;;;;;;;36.10;19.00;;;;;;;-1.93;64.52;97371.92;108817;1251;100048;-73
2023/04/06 02:50:08;;;;;;;37.80;20.50;;;;;;;-1.97;64.64;97376.10;108807;1253;95833;-74
2023/04/06 02:52:37;;;;;;;39.30;22.00;;;;;;;-1.99;64.79;97374.34;108848;1253;96004;-74
2023/04/06 02:55:07;;;;;;;41.40;21.80;;;;;;;-2.03;64.86;97374.67;108860;1253;103341;-72
2023/04/06 02:57:35;;;;;;;36.40;20.80;;;;;;;-2.05;64.94;97376.11;108845;1252;101441;-71
2023/04/06 03:00:04;;;;;;;38.60;20.10;;;;;;;-2.04;64.98;97374.45;108835;1252;100143;-72
2023/04/06 03:02:32;;;;;;;38.40;21.30;;;;;;;-2.04;65.02;97371.66;108813;1253;95581;-71
2023/04/06 03:05:00;;;;;;;38.60;21.10;;;;;;;-2.06;65.09;97371.94;108882;1253;96013;-72
2023/04/06 03:07:28;;;;;;;35.70;18.90;;;;;;;-2.07;65.14;97379.35;108653;1252;103230;-73
2023/04/06 03:09:56;;;;;;;37.20;20.90;;;;;;;-2.09;65.09;97374.89;108803;1252;101183;-73
2023/04/06 03:12:24;;;;;;;36.50;20.00;;;;;;;-2.08;65.19;97379.08;108863;1252;100135;-71
2023/04/06 03:14:52;;;;;;;37.50;20.90;;;;;;;-2.08;65.25;97380.66;108768;1252;95529;-73
2023/04/06 03:17:20;;;;;;;39.40;20.80;;;;;;;-2.09;65.28;97382.47;108865;1252;97021;-72
2023/04/06 03:19:48;;;;;;;40.40;20.80;;;;;;;-2.11;65.25;97382.09;108787;1252;103753;-74
2023/04/06 03:22:16;;;;;;;39.70;21.40;;;;;;;-2.12;65.28;97386.96;108872;1253;101072;-71
2023/04/06 03:24:44;;;;;;;43.40;22.90;;;;;;;-2.13;65.33;97387.95;108876;1252;99975;-71
2023/04/06 03:27:12;;;;;;;40.80;22.10;;;;;;;-2.13;65.44;97385.86;108803;1252;95679;-74
2023/04/06 03:29:40;;;;;;;43.20;21.90;;;;;;;-2.14;65.42;97387.33;108826;1253;96589;-71
2023/04/06 03:32:10;;;;;;;46.00;24.90;;;;;;;-2.14;65.42;97390.36;108668;1253;103404;-72
2023/04/06 03:34:38;;;;;;;51.70;25.70;;;;;;;-2.16;65.46;97389.13;108894;1253;101287;-73
2023/04/06 03:37:07;;;;;;;45.30;27.00;;;;;;;-2.17;65.44;97390.45;108802;1252;100096;-73
2023/04/06 03:39:35;;;;;;;47.40;26.70;;;;;;;-2.18;65.50;97390.86;108849;1252;95543;-72
2023/04/06 03:42:03;;;;;;;46.40;26.10;;;;;;;-2.18;65.60;97394.40;108848;1251;97070;-72
2023/04/06 03:44:31;;;;;;;45.30;24.30;;;;;;;-2.19;65.71;97394.09;108869;1253;103638;-73
2023/04/06 03:46:59;;;;;;;44.00;24.10;;;;;;;-2.20;65.79;97391.20;108876;1252;101544;-73
2023/04/06 03:49:27;;;;;;;43.90;23.50;;;;;;;-2.23;65.82;97389.89;108790;1252;100349;-73
2023/04/06 03:51:57;;;;;;;44.00;23.90;;;;;;;-2.26;65.87;97388.70;108817;1252;95555;-74
2023/04/06 03:54:25;;;;;;;50.20;27.50;;;;;;;-2.26;65.93;97386.59;108796;1253;96047;-71
2023/04/06 03:56:53;;;;;;;50.00;26.30;;;;;;;-2.26;65.87;97392.59;108875;1252;103445;-73
2023/04/06 03:59:21;;;;;;;44.50;24.80;;;;;;;-2.25;65.83;97393.41;108835;1252;101383;-73
2023/04/06 04:01:49;;;;;;;39.90;22.10;;;;;;;-2.25;65.90;97394.99;108829;1252;99881;-72
2023/04/06 04:04:17;;;;;;;45.40;23.40;;;;;;;-2.25;65.95;97395.35;108853;1252;95551;-73
2023/04/06 04:06:45;;;;;;;48.00;24.80;;;;;;;-2.26;65.94;97395.94;108868;1252;96188;-71
2023/04/06 04:09:14;;;;;;;51.40;26.30;;;;;;;-2.25;66.04;97397.95;108533;1253;103509;-72
2023/04/06 04:11:42;;;;;;;58.00;27.10;;;;;;;-2.25;66.01;97396.36;108881;1253;101528;-72
2023/04/06 04:14:10;;;;;;;52.00;25.30;;;;;;;-2.24;66.01;97395.05;108838;1253;100379;-73
2023/04/06 04:16:39;;;;;;;46.10;23.80;;;;;;;-2.24;66.05;97393.27;108529;1253;95667;-73
2023/04/06 04:19:07;;;;;;;45.90;22.80;;;;;;;-2.25;66.07;97391.77;108848;1253;96162;-72
2023/04/06 04:21:35;;;;;;;47.90;23.80;;;;;;;-2.29;66.11;97388.61;108879;1254;103261;-73
2023/04/06 04:24:03;;;;;;;53.80;26.60;;;;;;;-2.29;66.28;97388.45;108815;1252;101464;-72
2023/04/06 04:26:31;;;;;;;47.60;25.60;;;;;;;-2.27;66.25;97386.38;108795;1254;99150;-72
2023/04/06 04:28:59;;;;;;;43.50;23.70;;;;;;;-2.24;66.32;97387.34;108806;1255;95674;-73
2023/04/06 04:31:27;;;;;;;49.50;24.00;;;;;;;-2.22;66.38;97381.72;108807;1252;96096;-74
2023/04/06 04:33:55;;;;;;;47.40;24.40;;;;;;;-2.20;66.46;97382.77;108836;1253;103484;-72
2023/04/06 04:36:25;;;;;;;39.20;22.20;;;;;;;-2.19;66.53;97386.19;108845;1252;101510;-72
2023/04/06 04:38:53;;;;;;;42.00;23.50;;;;;;;-2.17;66.56;97382.81;108792;1253;100079;-71
2023/04/06 04:41:21;;;;;;;42.50;25.50;;;;;;;-2.14;66.49;97380.84;108791;1252;96289;-72
2023/04/06 04:43:49;;;;;;;48.30;28.20;;;;;;;-2.13;66.40;97385.98;108859;1253;97654;-72
2023/04/06 04:46:17;;;;;;;47.50;28.80;;;;;;;-2.11;66.42;97389.91;108833;1251;103618;-74
2023/04/06 04:48:45;;;;;;;58.80;30.70;;;;;;;-2.11;66.42;97393.11;108832;1252;101476;-74
2023/04/06 04:51:13;;;;;;;58.50;31.60;;;;;;;-2.09;66.43;97391.84;108823;1252;100321;-74
2023/04/06 04:53:41;;;;;;;57.50;30.40;;;;;;;-2.07;66.53;97393.39;108796;1253;95695;-72
2023/04/06 04:56:09;;;;;;;49.80;28.30;;;;;;;-2.04;66.56;97389.29;108836;1252;96046;-73
2023/04/06 04:58:37;;;;;;;50.10;28.70;;;;;;;-2.03;66.53;97382.86;108803;1253;103792;-71
2023/04/06 05:01:06;;;;;;;50.30;26.00;;;;;;;-2.02;66.49;97380.05;108766;1252;101577;-72
2023/04/06 05:03:35;;;;;;;42.50;24.20;;;;;;;-1.99;66.52;97382.66;108787;1252;99646;-72
2023/04/06 05:06:03;;;;;;;45.90;27.40;;;;;;;-1.97;66.53;97379.09;108832;1253;95596;-74
2023/04/06 05:08:31;;;;;;;44.70;26.00;;;;;;;-1.94;66.62;97374.24;108819;1253;95587;-71
2023/04/06 05:11:00;;;;;;;55.70;29.80;;;;;;;-1.91;66.65;97374.69;108569;1253;103187;-74
2023/04/06 05:13:28;;;;;;;58.60;29.60;;;;;;;-1.87;66.69;97378.95;108835;1253;101119;-74
2023/04/06 05:15:56;;;;;;;61.30;29.00;;;;;;;-1.83;66.66;97376.65;108790;1253;100201;-72
2023/04/06 05:18:24;;;;;;;53.00;29.90;;;;;;;-1.78;66.70;97376.26;108792;1254;95537;-73
2023/04/06 05:20:52;;;;;;;58.50;29.30;;;;;;;-1.75;66.71;97374.34;108833;1253;96023;-73
2023/04/06 05:23:20;;;;;;;66.90;30.70;;;;;;;-1.72;66.65;97370.74;108772;1253;103754;-73
2023/04/06 05:25:48;;;;;;;56.80;32.30;;;;;;;-1.67;66.82;97371.35;108636;1252;101043;-71
2023/04/06 05:28:16;;;;;;;59.10;32.00;;;;;;;-1.67;66.66;97371.39;108839;1252;100004;-73
2023/04/06 05:30:45;;;;;;;53.80;30.00;;;;;;;-1.72;66.51;97371.83;108822;1253;95607;-73
2023/04/06 05:33:14;;;;;;;61.70;33.50;;;;;;;-1.69;66.64;97373.53;108772;1253;96044;-71
2023/04/06 05:35:42;;;;;;;46.70;25.20;;;;;;;-1.63;66.77;97374.90;108628;1252;103684;-73
2023/04/06 05:38:10;;;;;;;35.60;20.90;;;;;;;-1.60;66.72;97374.30;108519;1252;100567;-72
2023/04/06 05:40:40;;;;;;;33.90;19.00;;;;;;;-1.56;66.80;97372.80;108774;1251;100076;-72
2023/04/06 05:43:09;;;;;;;32.10;18.40;;;;;;;-1.47;66.79;97373.45;108759;1253;95541;-73
2023/04/06 05:45:37;;;;;;;32.30;18.40;;;;;;;-1.40;66.68;97374.42;108788;1253;96021;-72
2023/04/06 05:48:05;;;;;;;37.00;21.40;;;;;;;-1.35;66.60;97374.30;108807;1254;103431;-72
2023/04/06 05:50:33;;;;;;;63.40;36.40;;;;;;;-1.29;66.47;97371.96;108830;1252;101245;-73
2023/04/06 05:53:01;;;;;;;75.50;40.60;;;;;;;-1.23;66.32;97368.44;108735;1253;100429;-73
2023/04/06 05:55:29;;;;;;;47.20;29.60;;;;;;;-1.18;66.15;97366.36;108818;1252;95564;-72
2023/04/06 05:57:58;;;;;;;41.40;23.60;;;;;;;-1.14;66.02;97366.67;108613;1252;96004;-70
2023/04/06 06:00:26;;;;;;;38.80;23.40;;;;;;;-1.11;65.98;97372.07;108809;1253;103434;-73
2023/04/06 06:02:54;;;;;;;31.30;18.10;;;;;;;-1.15;65.96;97371.73;108647;1252;101037;-72
2023/04/06 06:05:22;;;;;;;39.00;19.80;;;;;;;-1.19;65.94;97371.93;108741;1253;99531;-72
2023/04/06 06:07:50;;;;;;;31.00;18.70;;;;;;;-1.18;65.97;97372.35;108792;1253;95968;-72
2023/04/06 06:10:18;;;;;;;31.20;18.40;;;;;;;-1.16;66.00;97374.70;108481;1254;96090;-73
2023/04/06 06:12:46;;;;;;;29.70;17.90;;;;;;;-1.11;66.14;97373.11;108821;1252;103595;-74
2023/04/06 06:15:14;;;;;;;32.20;18.20;;;;;;;-1.04;66.06;97371.48;108819;1252;101665;-72
2023/04/06 06:17:43;;;;;;;29.10;18.50;;;;;;;-1.02;65.96;97375.17;108608;1254;99995;-73
2023/04/06 06:20:11;;;;;;;30.00;18.00;;;;;;;-1.00;65.95;97369.48;108725;1253;95860;-73
2023/04/06 06:22:40;;;;;;;41.70;19.50;;;;;;;-0.93;65.82;97374.02;108827;1254;96042;-74
2023/04/06 06:25:08;;;;;;;34.00;18.50;;;;;;;-0.86;65.96;97371.79;108806;1252;103219;-73
2023/04/06 06:27:36;;;;;;;31.20;18.40;;;;;;;-0.81;65.90;97370.71;108790;1255;99997;-74
2023/04/06 06:30:05;;;;;;;31.10;18.10;;;;;;;-0.77;65.65;97370.52;108723;1253;99674;-72
2023/04/06 06:32:33;;;;;;;26.50;17.50;;;;;;;-0.77;65.60;97371.45;108744;1253;95931;-72
2023/04/06 06:35:02;;;;;;;28.20;18.70;;;;;;;-0.71;65.50;97371.59;108387;1254;96188;-71
2023/04/06 06:37:30;;;;;;;43.60;19.60;;;;;;;-0.64;65.45;97373.21;108797;1254;103287;-74
2023/04/06 06:39:58;;;;;;;33.20;18.80;;;;;;;-0.56;65.42;97374.42;108675;1253;101193;-72
2023/04/06 06:42:27;;;;;;;29.80;17.30;;;;;;;-0.49;65.24;97373.27;108768;1253;100049;-72
2023/04/06 06:44:55;;;;;;;28.40;17.80;;;;;;;-0.45;65.07;97370.30;108583;1254;95595;-71
2023/04/06 06:47:23;;;;;;;32.10;18.70;;;;;;;-0.41;64.60;97367.31;108785;1254;95982;-72
2023/04/06 06:49:51;;;;;;;32.70;20.80;;;;;;;-0.37;64.39;97361.99;108812;1253;103741;-71
2023/04/06 06:52:20;;;;;;;32.50;20.50;;;;;;;-0.33;64.22;97357.63;108798;1254;101630;-71
2023/04/06 06:54:48;;;;;;;34.30;20.10;;;;;;;-0.30;64.00;97358.55;108731;1252;99912;-72
2023/04/06 06:57:16;;;;;;;31.70;20.70;;;;;;;-0.27;63.81;97359.82;108612;1253;96556;-72
2023/04/06 06:59:44;;;;;;;30.40;19.20;;;;;;;-0.24;63.72;97359.92;108797;1254;96045;-72
2023/04/06 07:02:12;;;;;;;24.50;15.60;;;;;;;-0.22;63.62;97361.96;108792;1254;103583;-72
2023/04/06 07:04:41;;;;;;;27.10;15.60;;;;;;;-0.23;63.41;97361.38;108804;1252;101046;-73
2023/04/06 07:07:09;;;;;;;26.20;14.40;;;;;;;-0.20;63.24;97361.98;108709;1253;99316;-72
2023/04/06 07:09:37;;;;;;;24.30;15.00;;;;;;;-0.16;63.12;97362.83;108720;1252;95561;-71
2023/04/06 07:12:05;;;;;;;24.30;15.40;;;;;;;-0.12;62.90;97360.84;108843;1254;97049;-73
2023/04/06 07:14:33;;;;;;;22.80;14.10;;;;;;;-0.08;62.72;97364.52;108806;1254;103528;-74
2023/04/06 07:17:01;;;;;;;23.00;14.80;;;;;;;-0.04;62.72;97363.78;108720;1252;101555;-72
2023/04/06 07:19:29;;;;;;;26.20;15.30;;;;;;;-0.05;62.74;97363.55;108744;1252;100436;-72
2023/04/06 07:21:57;;;;;;;25.00;14.40;;;;;;;-0.07;62.67;97364.98;108740;1253;95551;-71
2023/04/06 07:24:26;;;;;;;22.80;14.90;;;;;;;-0.05;62.48;97367.98;108621;1254;96072;-71
2023/04/06 07:26:55;;;;;;;22.60;13.60;;;;;;;-0.08;62.31;97365.66;108804;1254;104117;-74
2023/04/06 07:29:24;;;;;;;24.90;14.90;;;;;;;-0.09;62.39;97368.54;108771;1253;109977;-72
2023/04/06 07:31:52;;;;;;;24.70;14.10;;;;;;;-0.06;62.33;97366.46;108739;1253;99978;-73
2023/04/06 07:34:20;;;;;;;20.80;12.20;;;;;;;-0.08;62.04;97373.92;108588;1252;95555;-72
2023/04/06 07:36:48;;;;;;;20.40;12.80;;;;;;;-0.14;61.83;97368.34;108720;1252;96038;-71
2023/04/06 07:39:17;;;;;;;21.00;11.20;;;;;;;-0.17;62.01;97365.82;108759;1253;102096;-71
2023/04/06 07:41:45;;;;;;;31.40;18.00;;;;;;;-0.19;61.83;97368.08;108630;1253;101443;-71
2023/04/06 07:44:13;;;;;;;35.00;20.20;;;;;;;-0.18;61.82;97362.39;108392;1253;99737;-73
2023/04/06 07:46:41;;;;;;;28.60;16.10;;;;;;;-0.12;61.77;97357.89;108581;1254;234279;-72
2023/04/06 07:49:09;;;;;;;29.00;17.20;;;;;;;-0.15;61.71;97357.06;108797;1253;96025;-73
2023/04/06 07:51:39;;;;;;;21.60;13.30;;;;;;;-0.11;61.78;97355.11;108662;1253;105070;-72
2023/04/06 07:54:07;;;;;;;21.40;13.30;;;;;;;-0.05;61.47;97356.69;108740;1254;101298;-72
2023/04/06 07:56:35;;;;;;;18.10;12.10;;;;;;;0.00;61.41;97353.86;108740;1252;99609;-74
2023/04/06 07:59:04;;;;;;;16.80;10.40;;;;;;;0.04;61.32;97353.34;108752;1252;95826;-72
2023/04/06 08:01:32;;;;;;;16.60;11.50;;;;;;;-0.08;60.96;97352.00;108754;1252;96003;-72
2023/04/06 08:04:02;;;;;;;18.20;11.20;;;;;;;-0.20;61.05;97354.06;108767;1254;103580;-74
2023/04/06 08:06:30;;;;;;;22.70;10.90;;;;;;;-0.24;61.06;97349.34;108747;1253;101344;-71
2023/04/06 08:08:58;;;;;;;17.30;10.60;;;;;;;-0.22;61.17;97350.17;108717;1254;99929;-72
2023/04/06 08:11:26;;;;;;;18.00;11.30;;;;;;;-0.24;61.06;97353.19;108686;1252;95664;-72
2023/04/06 08:13:56;;;;;;;17.10;10.80;;;;;;;-0.24;61.08;97349.27;108664;1254;96030;-72
2023/04/06 08:16:25;;;;;;;23.30;13.50;;;;;;;-0.25;61.16;97349.77;108430;1253;111819;-72
2023/04/06 08:18:53;;;;;;;24.80;13.50;;;;;;;-0.23;61.11;97342.45;108762;1252;108888;-71
2023/04/06 08:21:21;;;;;;;35.20;18.70;;;;;;;-0.18;61.15;97339.88;108745;1252;99979;-71
2023/04/06 08:23:50;;;;;;;23.10;12.70;;;;;;;-0.14;61.22;97338.83;108729;1252;95537;-72
2023/04/06 08:26:18;;;;;;;20.20;12.80;;;;;;;-0.18;61.30;97340.54;108770;1252;96042;-71
2023/04/06 08:28:46;;;;;;;24.30;13.80;;;;;;;-0.13;61.18;97344.71;108640;1253;103209;-70
2023/04/06 08:31:14;;;;;;;23.20;13.80;;;;;;;-0.08;61.12;97344.60;108665;1254;100390;-72
2023/04/06 08:33:42;;;;;;;22.00;12.70;;;;;;;-0.02;61.13;97345.79;108741;1252;99963;-72
2023/04/06 08:36:12;;;;;;;21.60;12.40;;;;;;;-0.07;61.11;97346.71;108722;1253;95637;-72
2023/04/06 08:38:42;;;;;;;21.20;12.30;;;;;;;-0.11;61.13;97346.75;108805;1252;96142;-73
2023/04/06 08:41:12;;;;;;;25.20;13.00;;;;;;;-0.10;61.42;97347.79;108666;1254;103561;-71
2023/04/06 08:43:45;;;;;;;18.60;12.70;;;;;;;-0.12;61.31;97345.52;108865;1253;101272;-71
2023/04/06 08:46:13;;;;;;;22.80;13.10;;;;;;;-0.17;61.30;97342.58;108713;1252;100349;-71
2023/04/06 08:48:43;;;;;;;27.20;14.40;;;;;;;-0.23;61.41;97341.40;108807;1253;95613;-70
2023/04/06 08:51:12;;;;;;;23.20;13.10;;;;;;;-0.21;61.39;97338.60;108766;1253;96004;-73
2023/04/06 08:53:40;;;;;;;22.80;14.20;;;;;;;-0.22;61.41;97332.45;108707;1253;104016;-72
2023/04/06 08:56:11;;;;;;;25.00;13.90;;;;;;;-0.23;61.62;97330.78;108810;1253;101224;-72
2023/04/06 08:58:41;;;;;;;23.80;14.10;;;;;;;-0.16;61.68;97328.23;108716;1253;100213;-71
2023/04/06 09:01:12;;;;;;;22.90;13.70;;;;;;;-0.17;61.76;97328.78;108772;1252;95896;-71
2023/04/06 09:03:41;;;;;;;23.20;13.50;;;;;;;-0.20;61.96;97328.04;108723;1253;95742;-71
2023/04/06 09:06:11;;;;;;;25.80;12.90;;;;;;;-0.20;62.00;97327.14;108763;1254;103826;-72
2023/04/06 09:08:41;;;;;;;19.90;11.40;;;;;;;-0.17;62.04;97324.04;108731;1252;101722;-71
2023/04/06 09:11:09;;;;;;;20.00;11.80;;;;;;;-0.10;61.71;97321.77;108766;1252;100166;-71
2023/04/06 09:13:48;;;;;;;16.20;11.20;;;;;;;-0.06;61.64;97318.55;108750;1254;95730;-72
2023/04/06 09:16:16;;;;;;;14.20;10.00;;;;;;;-0.00;61.58;97316.05;108756;1252;96028;-71
2023/04/06 09:18:45;;;;;;;17.70;10.50;;;;;;;0.08;61.86;97313.55;108836;1252;102655;-72
2023/04/06 09:21:14;;;;;;;17.30;11.30;;;;;;;0.12;61.83;97315.89;108309;1252;100916;-70
2023/04/06 09:23:42;;;;;;;18.20;11.30;;;;;;;0.21;61.78;97314.35;108713;1252;99469;-71
2023/04/06 09:26:15;;;;;;;18.20;10.60;;;;;;;0.27;61.92;97313.31;108755;1252;95533;-71
2023/04/06 09:28:49;;;;;;;17.80;10.80;;;;;;;0.27;61.58;97310.32;108721;1252;96407;-71
2023/04/06 09:31:25;;;;;;;17.90;10.80;;;;;;;0.26;61.64;97309.90;108776;1251;103450;-72
2023/04/06 09:33:54;;;;;;;18.30;9.80;;;;;;;0.37;61.58;97309.03;108760;1252;101066;-72
2023/04/06 09:36:38;;;;;;;16.10;10.60;;;;;;;0.48;61.43;97310.20;108717;1252;100047;-72
2023/04/06 09:39:06;;;;;;;17.20;10.80;;;;;;;0.39;61.12;97307.95;108683;1252;95561;-71
2023/04/06 09:41:37;;;;;;;17.40;10.80;;;;;;;0.20;61.43;97306.96;108777;1252;96003;-72
2023/04/06 09:44:09;;;;;;;15.60;10.10;;;;;;;0.12;61.83;97305.23;108744;1252;103382;-71
2023/04/06 09:46:38;;;;;;;;;;;;;;;0.06;62.24;97306.43;108734;1253;101632;-71
2023/04/06 09:49:08;;;;;;;20.80;12.00;;;;;;;0.04;62.79;97306.80;108730;1252;99648;-71
2023/04/06 09:51:41;;;;;;;19.30;12.50;;;;;;;0.09;62.94;97305.25;108762;1252;95598;-71
2023/04/06 09:54:12;;;;;;;22.00;13.90;;;;;;;0.18;63.12;97307.87;108833;1252;95992;-71
2023/04/06 09:56:47;;;;;;;22.80;12.50;;;;;;;0.31;63.05;97305.05;108630;1254;104679;-72
2023/04/06 09:59:27;;;;;;;20.30;11.40;;;;;;;0.36;63.12;97302.08;108693;1252;101848;-71
2023/04/06 10:01:59;;;;;;;32.30;15.50;;;;;;;0.26;63.47;97307.97;108698;1252;99644;-71
2023/04/06 10:04:44;;;;;;;35.10;17.20;;;;;;;0.25;63.71;97302.09;108755;1252;95520;-71
2023/04/06 10:07:13;;;;;;;33.90;18.60;;;;;;;0.17;63.96;97305.13;108784;1252;96428;-72
2023/04/06 10:09:41;;;;;;;46.80;26.30;;;;;;;0.20;63.94;97307.16;108759;1251;103565;-70
2023/04/06 10:12:10;;;;;;;27.10;18.60;;;;;;;0.30;64.05;97307.20;108643;1252;101333;-71
2023/04/06 10:14:39;;;;;;;22.20;15.30;;;;;;;0.38;63.95;97308.94;108719;1252;100013;-71
2023/04/06 10:17:07;;;;;;;22.30;14.10;;;;;;;0.36;64.30;97310.84;108706;1252;95612;-72
2023/04/06 10:19:50;;;;;;;23.60;14.90;;;;;;;0.39;64.42;97309.68;108553;1252;96557;-72
2023/04/06 10:22:27;;;;;;;23.80;16.60;;;;;;;0.47;64.50;97309.70;108644;1253;104953;-72
2023/04/06 10:24:55;;;;;;;27.80;16.50;;;;;;;0.53;64.44;97306.23;108779;1252;101344;-72
2023/04/06 10:27:30;;;;;;;44.50;23.20;;;;;;;0.58;64.42;97304.84;108776;1252;99904;-70
2023/04/06 10:30:04;;;;;;;41.30;24.00;;;;;;;0.65;64.60;97303.27;108701;1253;95538;-71
2023/04/06 10:32:37;;;;;;;35.50;20.80;;;;;;;0.70;64.61;97303.05;108738;1252;95940;-71
2023/04/06 10:35:09;;;;;;;26.20;17.80;;;;;;;0.71;64.55;97300.71;108768;1252;103378;-72
2023/04/06 10:37:53;;;;;;;;;;;;;;;0.71;64.60;97302.44;108760;1253;101110;-70
2023/04/06 10:40:26;;;;;;;25.60;15.70;;;;;;;0.70;64.68;97302.02;108727;1252;99804;-72
2023/04/06 10:42:56;;;;;;;28.90;17.80;;;;;;;0.69;64.63;97302.98;108757;1252;95561;-71
2023/04/06 10:45:26;;;;;;;29.70;18.60;;;;;;;0.67;64.83;97297.77;108734;1252;95985;-72
2023/04/06 10:47:55;;;;;;;34.00;22.20;;;;;;;0.65;64.94;97295.22;108768;1252;103449;-71
2023/04/06 10:50:24;;;;;;;33.90;20.10;;;;;;;0.65;65.02;97293.46;108763;1252;101662;-72
2023/04/06 10:53:03;;;;;;;27.20;17.80;;;;;;;0.67;65.20;97291.70;108644;1252;98542;-71
2023/04/06 10:55:32;;;;;;;30.80;19.40;;;;;;;0.68;65.22;97289.34;108763;1253;95569;-71
2023/04/06 10:58:00;;;;;;;53.70;27.50;;;;;;;0.65;65.35;97290.51;108776;1252;96078;-71
2023/04/06 11:00:28;;;;;;;69.30;34.30;;;;;;;0.59;65.27;97286.30;108647;1253;103652;-71
2023/04/06 11:03:03;;;;;;;40.70;23.20;;;;;;;0.52;65.52;97279.73;108765;1252;100433;-71
2023/04/06 11:05:31;;;;;;;39.60;24.00;;;;;;;0.50;65.77;97281.60;108719;1252;100076;-71
2023/04/06 11:07:59;;;;;;;50.50;27.30;;;;;;;0.43;65.98;97280.67;108730;1251;95613;-71
2023/04/06 11:10:27;;;;;;;42.50;25.80;;;;;;;0.39;66.04;97280.02;108787;1252;96473;-72
2023/04/06 11:12:56;;;;;;;31.80;20.30;;;;;;;0.36;66.25;97280.98;108759;1252;103449;-70
2023/04/06 11:15:24;;;;;;;39.70;22.60;;;;;;;0.35;66.30;97285.27;108774;1252;101080;-71